Time;durP1;ratioP1;P1;durP2;ratioP2;P2;SDS_P1;SDS_P2;PMS_P1;PMS_P2;Temp;Humidity;BMP_temperature;BMP_pressure;BME280_temperature;BME280_humidity;BME280_pressure;Samples;Min_cycle;Max_cycle;Signal;HPM_P1;HPM_P2
2022/01/05 00:01:48;;;;;;;6.63;3.30;;;;;;;;;;8467766;28;20463;-76
2022/01/05 00:05:50;;;;;;;5.38;2.85;;;;;;;;;;8469607;28;20104;-82
2022/01/05 00:09:54;;;;;;;7.13;3.30;;;;;;;;;;8469333;28;20044;-81
2022/01/05 00:13:58;;;;;;;7.00;2.90;;;;;;;;;;8468798;28;20047;-83
2022/01/05 00:18:00;;;;;;;6.57;3.28;;;;;;;;;;8468951;28;20051;-78
2022/01/05 00:22:04;;;;;;;6.30;3.15;;;;;;;;;;8468989;28;20101;-76
2022/01/05 00:26:08;;;;;;;8.00;3.10;;;;;;;;;;8468701;28;20414;-83
2022/01/05 00:30:11;;;;;;;6.07;2.75;;;;;;;;;;8468351;28;20047;-76
2022/01/05 00:34:14;;;;;;;5.70;2.60;;;;;;;;;;8468497;28;20047;-77
2022/01/05 00:38:17;;;;;;;5.38;2.97;;;;;;;;;;8468327;28;20044;-83
2022/01/05 00:42:21;;;;;;;6.47;2.88;;;;;;;;;;8468200;28;20444;-76
2022/01/05 00:46:24;;;;;;;4.95;2.58;;;;;;;;;;8468536;27;20059;-76
2022/01/05 00:50:26;;;;;;;5.95;2.80;;;;;;;;;;8467980;28;20055;-77
2022/01/05 00:54:29;;;;;;;4.70;2.78;;;;;;;;;;8467545;28;20044;-82
2022/01/05 00:58:33;;;;;;;5.50;2.45;;;;;;;;;;8467220;28;20048;-76
2022/01/05 01:02:36;;;;;;;5.53;2.63;;;;;;;;;;8467527;28;20048;-77
2022/01/05 01:06:38;;;;;;;5.30;2.70;;;;;;;;;;8467437;28;20050;-76
2022/01/05 01:10:41;;;;;;;5.60;2.70;;;;;;;;;;8467530;27;20549;-85
2022/01/05 01:14:45;;;;;;;5.03;2.60;;;;;;;;;;8467716;28;20051;-84
2022/01/05 01:18:48;;;;;;;4.63;2.60;;;;;;;;;;8467035;28;20058;-82
2022/01/05 01:22:52;;;;;;;4.45;2.20;;;;;;;;;;8466762;28;20051;-80
2022/01/05 01:26:57;;;;;;;6.93;2.80;;;;;;;;;;8467008;28;20452;-81
2022/01/05 01:31:01;;;;;;;3.47;2.10;;;;;;;;;;8466641;28;20058;-81
2022/01/05 01:35:05;;;;;;;4.75;2.25;;;;;;;;;;8467119;28;20058;-81
2022/01/05 01:39:08;;;;;;;4.63;2.42;;;;;;;;;;8466830;28;20051;-81
2022/01/05 01:43:10;;;;;;;4.85;2.80;;;;;;;;;;8466181;28;20059;-82
2022/01/05 01:47:14;;;;;;;4.55;2.40;;;;;;;;;;8465891;28;20078;-83
2022/01/05 01:51:18;;;;;;;3.72;2.30;;;;;;;;;;8432180;28;20047;-83
2022/01/05 01:55:20;;;;;;;5.43;2.58;;;;;;;;;;8449584;28;20395;-83
2022/01/05 01:59:23;;;;;;;3.75;2.42;;;;;;;;;;8465450;28;20052;-83
2022/01/05 02:03:28;;;;;;;6.10;2.60;;;;;;;;;;8465093;27;20043;-83
2022/01/05 02:07:31;;;;;;;3.88;2.13;;;;;;;;;;8465945;28;20380;-83
2022/01/05 02:11:38;;;;;;;2.97;2.17;;;;;;;;;;8465327;28;20479;-85
2022/01/05 02:15:41;;;;;;;5.47;2.20;;;;;;;;;;8464446;28;20062;-84
2022/01/05 02:19:46;;;;;;;5.03;2.30;;;;;;;;;;8465113;28;20179;-84
2022/01/05 02:23:49;;;;;;;6.45;2.60;;;;;;;;;;8465336;28;20055;-83
2022/01/05 02:27:55;;;;;;;3.15;2.15;;;;;;;;;;8463569;28;20574;-84
2022/01/05 02:32:00;;;;;;;4.00;2.17;;;;;;;;;;8464768;28;20048;-84
2022/01/05 02:36:04;;;;;;;4.63;2.40;;;;;;;;;;8464645;28;20051;-83
2022/01/05 02:40:11;;;;;;;4.88;2.40;;;;;;;;;;8464730;28;20047;-84
2022/01/05 02:44:14;;;;;;;4.22;2.05;;;;;;;;;;8462513;28;20044;-82
2022/01/05 02:48:17;;;;;;;5.03;2.55;;;;;;;;;;8457797;28;20048;-81
2022/01/05 02:52:20;;;;;;;4.47;2.30;;;;;;;;;;8463661;28;20046;-81
2022/01/05 02:56:24;;;;;;;6.13;2.70;;;;;;;;;;8464702;28;20047;-81
2022/01/05 03:00:27;;;;;;;4.38;2.42;;;;;;;;;;8464141;28;20077;-81
2022/01/05 03:04:29;;;;;;;4.90;2.67;;;;;;;;;;8464041;28;20376;-80
2022/01/05 03:08:32;;;;;;;3.78;2.33;;;;;;;;;;8464054;28;20048;-78
2022/01/05 03:12:37;;;;;;;4.60;2.60;;;;;;;;;;8464057;28;20047;-79
2022/01/05 03:16:40;;;;;;;3.47;2.50;;;;;;;;;;8467658;28;20043;-77
2022/01/05 03:20:42;;;;;;;4.70;2.30;;;;;;;;;;8470788;28;20043;-78
2022/01/05 03:24:46;;;;;;;4.65;2.70;;;;;;;;;;8470450;27;20410;-76
2022/01/05 03:28:50;;;;;;;4.68;2.58;;;;;;;;;;8470401;28;20122;-78
2022/01/05 03:33:09;;;;;;;4.07;2.20;;;;;;;;;;8470891;27;20063;-82
2022/01/05 03:37:11;;;;;;;3.45;2.17;;;;;;;;;;8470377;28;20453;-78
2022/01/05 03:41:14;;;;;;;3.70;2.33;;;;;;;;;;8470452;28;20471;-76
2022/01/05 03:45:18;;;;;;;4.68;2.55;;;;;;;;;;8470037;28;20677;-82
2022/01/05 03:49:21;;;;;;;3.65;2.08;;;;;;;;;;8470432;28;20046;-82
2022/01/05 03:53:24;;;;;;;4.03;2.17;;;;;;;;;;8469446;28;20123;-77
2022/01/05 03:57:27;;;;;;;4.22;2.20;;;;;;;;;;8469592;28;20044;-76
2022/01/05 04:01:30;;;;;;;3.75;2.30;;;;;;;;;;8469398;28;20503;-81
2022/01/05 04:05:33;;;;;;;3.35;2.22;;;;;;;;;;8469060;28;20047;-82
2022/01/05 04:09:36;;;;;;;3.65;2.00;;;;;;;;;;8461369;28;20471;-82
2022/01/05 04:13:38;;;;;;;4.63;2.38;;;;;;;;;;8448668;28;20083;-76
2022/01/05 04:17:42;;;;;;;4.70;2.35;;;;;;;;;;8465456;28;20047;-83
2022/01/05 04:21:45;;;;;;;4.35;2.30;;;;;;;;;;8474490;27;20035;-84
2022/01/05 04:25:48;;;;;;;4.88;2.55;;;;;;;;;;8473032;27;20058;-78
2022/01/05 04:29:51;;;;;;;3.40;2.15;;;;;;;;;;8479767;27;20070;-84
2022/01/05 04:33:56;;;;;;;3.65;2.22;;;;;;;;;;8468682;27;20044;-83
2022/01/05 04:37:59;;;;;;;3.60;2.20;;;;;;;;;;8457649;27;20115;-80
2022/01/05 04:42:04;;;;;;;4.20;2.30;;;;;;;;;;8476604;27;20044;-83
2022/01/05 04:46:06;;;;;;;4.70;2.40;;;;;;;;;;8477322;27;20062;-82
2022/01/05 04:50:14;;;;;;;3.80;2.15;;;;;;;;;;8477365;27;20391;-84
2022/01/05 04:54:17;;;;;;;4.05;2.30;;;;;;;;;;8483064;27;20035;-81
2022/01/05 04:58:20;;;;;;;3.17;2.00;;;;;;;;;;8456557;27;20056;-82
2022/01/05 05:02:22;;;;;;;3.72;2.30;;;;;;;;;;8480222;27;20481;-83
2022/01/05 05:06:26;;;;;;;4.30;2.30;;;;;;;;;;8471451;27;20054;-84
2022/01/05 05:10:29;;;;;;;4.25;2.30;;;;;;;;;;8476707;27;20498;-83
2022/01/05 05:14:31;;;;;;;4.13;2.28;;;;;;;;;;8464797;28;20067;-76
2022/01/05 05:18:34;;;;;;;4.35;2.60;;;;;;;;;;8467128;27;20395;-81
2022/01/05 05:22:38;;;;;;;4.32;2.60;;;;;;;;;;8461142;28;20140;-81
2022/01/05 05:26:41;;;;;;;3.25;2.00;;;;;;;;;;8459274;28;20467;-81
2022/01/05 05:30:43;;;;;;;3.47;2.22;;;;;;;;;;8459551;28;20043;-84
2022/01/05 05:34:46;;;;;;;3.83;2.30;;;;;;;;;;8466089;28;20403;-81
2022/01/05 05:38:50;;;;;;;5.15;2.65;;;;;;;;;;8465579;28;20435;-83
2022/01/05 05:42:53;;;;;;;3.72;2.38;;;;;;;;;;8466796;28;20051;-82
2022/01/05 05:46:55;;;;;;;4.13;2.45;;;;;;;;;;8466162;28;20050;-82
2022/01/05 05:50:58;;;;;;;5.22;2.50;;;;;;;;;;8465779;28;20047;-85
2022/01/05 05:55:02;;;;;;;4.05;2.38;;;;;;;;;;8466219;28;20047;-84
2022/01/05 05:59:05;;;;;;;3.85;2.22;;;;;;;;;;8461137;28;20308;-85
2022/01/05 06:03:07;;;;;;;3.67;2.28;;;;;;;;;;8462573;27;20060;-81
2022/01/05 06:07:10;;;;;;;4.47;2.65;;;;;;;;;;8466111;27;20169;-76
2022/01/05 06:11:14;;;;;;;3.28;2.30;;;;;;;;;;8465422;28;20044;-82
2022/01/05 06:15:17;;;;;;;6.88;2.50;;;;;;;;;;8455807;27;20084;-80
2022/01/05 06:19:20;;;;;;;4.88;2.72;;;;;;;;;;8431381;28;20048;-80
2022/01/05 06:23:22;;;;;;;4.15;2.53;;;;;;;;;;8458796;28;20064;-80
2022/01/05 06:27:26;;;;;;;3.47;2.28;;;;;;;;;;8464659;28;20127;-80
2022/01/05 06:31:29;;;;;;;4.90;2.40;;;;;;;;;;8456184;28;20407;-78
2022/01/05 06:35:32;;;;;;;3.90;2.33;;;;;;;;;;8449892;28;20043;-80
2022/01/05 06:39:35;;;;;;;6.13;2.20;;;;;;;;;;8464437;28;20043;-80
2022/01/05 06:43:39;;;;;;;3.65;2.60;;;;;;;;;;8464918;28;20043;-80
2022/01/05 06:47:42;;;;;;;3.40;2.33;;;;;;;;;;8461503;28;20043;-78
2022/01/05 06:56:31;;;;;;;6.13;4.43;;;;;;;;;;8492637;27;20423;-76
2022/01/05 07:00:34;;;;;;;8.77;4.60;;;;;;;;;;8476183;27;20055;-77
2022/01/05 07:04:37;;;;;;;11.90;5.82;;;;;;;;;;8460013;28;20071;-76
2022/01/05 07:08:41;;;;;;;32.45;11.02;;;;;;;;;;8459924;28;20043;-76
2022/01/05 07:12:45;;;;;;;43.47;13.55;;;;;;;;;;8473276;28;20047;-76
2022/01/05 07:16:48;;;;;;;55.05;26.73;;;;;;;;;;8492887;27;20138;-77
2022/01/05 07:20:50;;;;;;;30.67;15.45;;;;;;;;;;8476198;27;20047;-77
2022/01/05 07:24:56;;;;;;;14.00;7.90;;;;;;;;;;8449914;28;20437;-78
2022/01/05 07:29:01;;;;;;;11.48;6.40;;;;;;;;;;8461685;28;20506;-75
2022/01/05 07:33:03;;;;;;;14.98;7.38;;;;;;;;;;8442684;28;20635;-76
2022/01/05 07:37:06;;;;;;;13.00;7.28;;;;;;;;;;8466279;28;20044;-76
2022/01/05 07:41:10;;;;;;;18.98;8.95;;;;;;;;;;8462073;27;20048;-76
2022/01/05 07:45:16;;;;;;;15.27;8.70;;;;;;;;;;8473480;28;20039;-78
2022/01/05 07:49:19;;;;;;;15.57;8.35;;;;;;;;;;8454816;28;20052;-76
2022/01/05 07:53:23;;;;;;;13.68;7.85;;;;;;;;;;8450804;28;20113;-80
2022/01/05 07:57:28;;;;;;;24.77;10.98;;;;;;;;;;8451775;28;20052;-80
2022/01/05 08:01:36;;;;;;;34.63;16.95;;;;;;;;;;8452935;28;20136;-77
2022/01/05 08:05:41;;;;;;;45.30;17.48;;;;;;;;;;8450596;28;20044;-76
2022/01/05 08:09:45;;;;;;;18.95;11.38;;;;;;;;;;8433122;28;20492;-77
2022/01/05 08:13:52;;;;;;;17.60;9.43;;;;;;;;;;8433188;28;20136;-76
2022/01/05 08:17:57;;;;;;;29.77;14.93;;;;;;;;;;8437427;28;20047;-76
2022/01/05 08:22:00;;;;;;;26.33;13.38;;;;;;;;;;8432834;28;20063;-78
2022/01/05 08:26:05;;;;;;;26.38;13.75;;;;;;;;;;8429497;28;20682;-78
2022/01/05 08:30:12;;;;;;;58.63;29.80;;;;;;;;;;8428030;28;20530;-77
2022/01/05 08:34:17;;;;;;;174.35;50.80;;;;;;;;;;8429907;28;20097;-77
2022/01/05 08:38:21;;;;;;;71.15;29.38;;;;;;;;;;8430033;28;20510;-77
2022/01/05 08:42:24;;;;;;;17.55;8.70;;;;;;;;;;8428768;28;20036;-78
2022/01/05 08:46:27;;;;;;;31.42;11.50;;;;;;;;;;8429620;28;20059;-80
2022/01/05 08:50:33;;;;;;;45.65;16.70;;;;;;;;;;8432426;28;20040;-81
2022/01/05 08:54:37;;;;;;;30.30;13.85;;;;;;;;;;8428553;28;20182;-80
2022/01/05 08:58:40;;;;;;;35.28;14.32;;;;;;;;;;8430304;28;20044;-79
2022/01/05 09:02:44;;;;;;;42.35;17.15;;;;;;;;;;8432445;28;20475;-79
2022/01/05 09:06:48;;;;;;;30.73;14.20;;;;;;;;;;8423221;28;20052;-79
2022/01/05 09:10:51;;;;;;;25.63;12.43;;;;;;;;;;8423850;28;20140;-78
2022/01/05 09:14:54;;;;;;;36.88;17.25;;;;;;;;;;8431258;28;20135;-80
2022/01/05 09:18:57;;;;;;;46.35;18.05;;;;;;;;;;8433101;28;20108;-78
2022/01/05 09:23:02;;;;;;;38.90;15.50;;;;;;;;;;8429748;27;20040;-77
2022/01/05 09:27:06;;;;;;;27.30;12.48;;;;;;;;;;8429690;28;20483;-78
2022/01/05 09:31:09;;;;;;;27.58;12.23;;;;;;;;;;8424784;28;20078;-77
2022/01/05 09:35:16;;;;;;;60.45;32.60;;;;;;;;;;8427524;28;20055;-77
2022/01/05 09:43:53;;;;;;;30.77;11.90;;;;;;;;;;8426509;28;20502;-78
2022/01/05 09:48:21;;;;;;;20.05;10.07;;;;;;;;;;8403373;28;20051;-77
2022/01/05 09:52:25;;;;;;;29.23;15.10;;;;;;;;;;8422476;28;20416;-77
2022/01/05 09:56:31;;;;;;;29.80;18.17;;;;;;;;;;8424821;28;20060;-77
2022/01/05 10:00:34;;;;;;;40.03;22.83;;;;;;;;;;8442232;28;20043;-77
2022/01/05 10:04:37;;;;;;;22.45;12.60;;;;;;;;;;8439274;28;20418;-77
2022/01/05 10:08:41;;;;;;;31.25;17.30;;;;;;;;;;8441678;28;20071;-77
2022/01/05 10:12:45;;;;;;;28.10;15.38;;;;;;;;;;8436576;28;20048;-75
2022/01/05 10:17:03;;;;;;;32.13;17.17;;;;;;;;;;8424089;28;20468;-76
2022/01/05 10:21:07;;;;;;;31.88;17.85;;;;;;;;;;8415771;28;20119;-76
2022/01/05 10:25:16;;;;;;;30.90;17.58;;;;;;;;;;8427296;28;20046;-77
2022/01/05 10:29:22;;;;;;;32.10;16.10;;;;;;;;;;8426794;28;20055;-78
2022/01/05 10:33:31;;;;;;;32.60;17.13;;;;;;;;;;8425288;28;20109;-77
2022/01/05 10:37:35;;;;;;;37.22;18.00;;;;;;;;;;8429865;28;20043;-77
2022/01/05 10:41:39;;;;;;;33.55;19.95;;;;;;;;;;8426477;28;20389;-77
2022/01/05 10:45:47;;;;;;;34.25;16.30;;;;;;;;;;8417307;28;20067;-76
2022/01/05 10:49:54;;;;;;;33.08;15.65;;;;;;;;;;8429734;28;20044;-77
2022/01/05 10:54:11;;;;;;;33.17;17.05;;;;;;;;;;8428875;28;20085;-77
2022/01/05 10:58:16;;;;;;;26.88;14.85;;;;;;;;;;8427794;28;20124;-78
2022/01/05 11:02:25;;;;;;;54.35;29.00;;;;;;;;;;8420043;28;20131;-77
2022/01/05 11:06:29;;;;;;;63.17;31.15;;;;;;;;;;8427596;28;20048;-79
2022/01/05 11:10:32;;;;;;;29.58;17.08;;;;;;;;;;8430074;28;20042;-80
2022/01/05 11:14:36;;;;;;;26.15;13.32;;;;;;;;;;8440320;28;20090;-76
2022/01/05 11:18:43;;;;;;;30.00;14.45;;;;;;;;;;8446853;28;20040;-76
2022/01/05 11:22:53;;;;;;;44.67;20.85;;;;;;;;;;8445479;28;20487;-76
2022/01/05 11:26:56;;;;;;;66.97;24.70;;;;;;;;;;8429625;28;20494;-76
2022/01/05 11:31:00;;;;;;;32.60;16.55;;;;;;;;;;8429625;28;20051;-76
2022/01/05 11:35:08;;;;;;;44.97;19.60;;;;;;;;;;8428528;28;20075;-76
2022/01/05 11:39:14;;;;;;;48.38;20.90;;;;;;;;;;8422493;28;20151;-76
2022/01/05 11:43:22;;;;;;;44.33;21.73;;;;;;;;;;8423501;28;20043;-76
2022/01/05 11:47:29;;;;;;;29.58;14.77;;;;;;;;;;8419583;28;20044;-77
2022/01/05 11:51:50;;;;;;;30.05;14.27;;;;;;;;;;8466506;28;20540;-76
2022/01/05 11:56:15;;;;;;;36.05;16.60;;;;;;;;;;8436739;28;20186;-76
2022/01/05 12:00:26;;;;;;;54.08;18.80;;;;;;;;;;8445290;28;20483;-75
2022/01/05 12:05:00;;;;;;;39.88;17.08;;;;;;;;;;8434982;28;20052;-76
2022/01/05 12:09:22;;;;;;;44.25;19.90;;;;;;;;;;8428045;28;20541;-76
2022/01/05 12:13:37;;;;;;;80.18;32.42;;;;;;;;;;8432734;28;20051;-77
2022/01/05 12:17:42;;;;;;;40.67;16.90;;;;;;;;;;8433902;28;20048;-77
2022/01/05 12:21:48;;;;;;;68.00;23.92;;;;;;;;;;8448296;28;20450;-76
2022/01/05 12:26:21;;;;;;;32.60;14.75;;;;;;;;;;8446646;28;20048;-76
2022/01/05 12:30:44;;;;;;;60.05;27.92;;;;;;;;;;8452463;28;20473;-76
2022/01/05 12:34:55;;;;;;;95.35;31.27;;;;;;;;;;8434922;28;20563;-77
2022/01/05 12:38:59;;;;;;;41.33;18.37;;;;;;;;;;8443818;28;20044;-76
2022/01/05 12:43:36;;;;;;;26.42;12.32;;;;;;;;;;8441929;28;20134;-78
2022/01/05 12:47:43;;;;;;;52.35;20.00;;;;;;;;;;8433139;28;20044;-78
2022/01/05 12:51:53;;;;;;;51.60;19.02;;;;;;;;;;8428280;28;20124;-76
2022/01/05 12:56:02;;;;;;;104.93;43.60;;;;;;;;;;8431138;28;20048;-78
2022/01/05 13:00:10;;;;;;;45.58;18.92;;;;;;;;;;8428475;28;20122;-76
2022/01/05 13:04:16;;;;;;;109.75;36.75;;;;;;;;;;8431702;28;20043;-75
2022/01/05 13:08:20;;;;;;;49.20;21.50;;;;;;;;;;8427090;28;20051;-76
2022/01/05 13:12:27;;;;;;;238.30;74.32;;;;;;;;;;8428377;28;20097;-76
2022/01/05 13:16:33;;;;;;;107.18;38.80;;;;;;;;;;8422046;28;20114;-77
2022/01/05 13:20:39;;;;;;;33.65;14.23;;;;;;;;;;8424915;28;20040;-76
2022/01/05 13:24:47;;;;;;;38.40;18.67;;;;;;;;;;8437763;28;20479;-77
2022/01/05 13:28:52;;;;;;;56.50;26.08;;;;;;;;;;8429525;28;20062;-77
2022/01/05 13:33:02;;;;;;;51.38;23.88;;;;;;;;;;8418383;28;20059;-78
2022/01/05 13:37:07;;;;;;;70.07;29.73;;;;;;;;;;8415981;28;20044;-77
2022/01/05 13:41:11;;;;;;;49.28;17.88;;;;;;;;;;8436017;28;20046;-77
2022/01/05 13:45:18;;;;;;;77.78;33.95;;;;;;;;;;8438418;28;20046;-77
2022/01/05 13:49:25;;;;;;;38.92;16.73;;;;;;;;;;8435205;28;20555;-77
2022/01/05 13:53:30;;;;;;;39.55;20.50;;;;;;;;;;8444572;28;20101;-77
2022/01/05 13:57:36;;;;;;;49.95;19.60;;;;;;;;;;8451372;28;20043;-77
2022/01/05 14:01:41;;;;;;;98.18;42.58;;;;;;;;;;8418399;28;20114;-77
2022/01/05 14:05:47;;;;;;;47.05;20.08;;;;;;;;;;8452405;28;20431;-77
2022/01/05 14:10:08;;;;;;;71.63;23.90;;;;;;;;;;8430951;28;20051;-77
2022/01/05 14:14:13;;;;;;;70.10;39.85;;;;;;;;;;8434722;28;20043;-77
2022/01/05 14:18:17;;;;;;;31.60;15.50;;;;;;;;;;8414837;28;20047;-76
2022/01/05 14:22:30;;;;;;;41.83;21.67;;;;;;;;;;8404840;28;20560;-76
2022/01/05 14:26:34;;;;;;;23.42;11.38;;;;;;;;;;8423051;28;20036;-81
2022/01/05 14:30:39;;;;;;;42.13;22.63;;;;;;;;;;8427948;28;20040;-76
2022/01/05 14:34:50;;;;;;;47.22;23.10;;;;;;;;;;8422167;28;20108;-77
2022/01/05 14:39:00;;;;;;;51.60;20.98;;;;;;;;;;8421475;28;20404;-78
2022/01/05 14:43:14;;;;;;;42.58;18.50;;;;;;;;;;8407966;28;20044;-76
2022/01/05 14:47:21;;;;;;;24.88;13.27;;;;;;;;;;8397566;28;20036;-77
2022/01/05 14:51:24;;;;;;;19.25;9.75;;;;;;;;;;8401603;28;20450;-78
2022/01/05 14:55:31;;;;;;;29.10;15.45;;;;;;;;;;8403549;28;20047;-76
2022/01/05 14:59:36;;;;;;;44.03;19.05;;;;;;;;;;8423751;28;20048;-77
2022/01/05 15:03:40;;;;;;;33.60;17.75;;;;;;;;;;8428325;28;20136;-77
2022/01/05 15:07:43;;;;;;;44.47;23.05;;;;;;;;;;8415403;28;20491;-77
2022/01/05 15:11:48;;;;;;;34.45;17.65;;;;;;;;;;8413535;28;20048;-76
2022/01/05 15:15:53;;;;;;;35.33;16.35;;;;;;;;;;8402158;28;20044;-76
2022/01/05 15:19:58;;;;;;;35.75;17.30;;;;;;;;;;8402903;28;20675;-76
2022/01/05 15:24:13;;;;;;;33.42;19.20;;;;;;;;;;8402660;28;20504;-76
2022/01/05 15:28:21;;;;;;;15.52;7.40;;;;;;;;;;8402613;28;20047;-77
2022/01/05 15:32:29;;;;;;;15.25;6.72;;;;;;;;;;8402216;28;20056;-77
2022/01/05 15:36:34;;;;;;;15.75;8.63;;;;;;;;;;8402124;28;20083;-76
2022/01/05 15:40:41;;;;;;;15.25;7.90;;;;;;;;;;8402143;28;20052;-75
2022/01/05 15:44:51;;;;;;;20.08;8.77;;;;;;;;;;8401995;28;20044;-76
2022/01/05 15:49:05;;;;;;;19.50;8.88;;;;;;;;;;8401582;28;20520;-75
2022/01/05 15:53:15;;;;;;;19.38;8.23;;;;;;;;;;8401612;28;20113;-77
2022/01/05 15:57:47;;;;;;;13.00;7.13;;;;;;;;;;8401695;28;20056;-77
2022/01/05 16:02:03;;;;;;;11.32;5.82;;;;;;;;;;8401375;28;20048;-77
2022/01/05 16:06:49;;;;;;;16.42;7.30;;;;;;;;;;8401173;28;20048;-78
2022/01/05 16:10:57;;;;;;;13.65;6.10;;;;;;;;;;8401315;28;20121;-78
2022/01/05 16:15:03;;;;;;;13.55;6.50;;;;;;;;;;8401276;28;20049;-77
2022/01/05 16:19:08;;;;;;;15.95;7.18;;;;;;;;;;8400698;28;20388;-77
2022/01/05 16:23:12;;;;;;;21.80;9.00;;;;;;;;;;8401229;28;20040;-77
2022/01/05 16:27:22;;;;;;;26.00;10.75;;;;;;;;;;8400270;28;20049;-77
2022/01/05 16:31:28;;;;;;;32.58;11.35;;;;;;;;;;8400736;28;20040;-78
2022/01/05 16:35:39;;;;;;;32.47;13.23;;;;;;;;;;8400126;28;20052;-79
2022/01/05 16:39:44;;;;;;;24.63;10.90;;;;;;;;;;8401115;28;20048;-82
2022/01/05 16:43:49;;;;;;;22.67;10.02;;;;;;;;;;8400269;28;20045;-77
2022/01/05 16:47:56;;;;;;;33.42;13.27;;;;;;;;;;8399678;28;20140;-77
2022/01/05 16:52:03;;;;;;;19.65;8.45;;;;;;;;;;8400031;28;20484;-76
2022/01/05 16:56:18;;;;;;;19.10;8.88;;;;;;;;;;8413780;28;20139;-76
2022/01/05 17:00:25;;;;;;;17.00;6.80;;;;;;;;;;8433120;28;20686;-76
2022/01/05 17:04:31;;;;;;;11.10;5.43;;;;;;;;;;8424203;28;20036;-76
2022/01/05 17:08:40;;;;;;;12.63;6.38;;;;;;;;;;8418084;28;20055;-76
2022/01/05 17:12:45;;;;;;;26.98;8.68;;;;;;;;;;8428619;28;20052;-76
2022/01/05 17:16:50;;;;;;;14.05;6.97;;;;;;;;;;8425899;28;20127;-79
2022/01/05 17:20:55;;;;;;;18.95;6.75;;;;;;;;;;8403732;28;20048;-80
2022/01/05 17:25:06;;;;;;;18.98;7.82;;;;;;;;;;8397075;28;20102;-78
2022/01/05 17:29:10;;;;;;;135.88;42.25;;;;;;;;;;8398277;28;20048;-77
2022/01/05 17:33:14;;;;;;;33.50;15.65;;;;;;;;;;8398250;28;20052;-78
2022/01/05 17:37:17;;;;;;;35.50;19.23;;;;;;;;;;8397460;28;20142;-78
2022/01/05 17:41:21;;;;;;;39.28;15.60;;;;;;;;;;8398058;28;20063;-78
2022/01/05 17:45:25;;;;;;;55.20;20.88;;;;;;;;;;8397413;28;20131;-77
2022/01/05 17:49:27;;;;;;;42.47;19.77;;;;;;;;;;8398570;28;20533;-78
2022/01/05 17:53:32;;;;;;;45.60;21.08;;;;;;;;;;8398045;28;20544;-78
2022/01/05 17:57:36;;;;;;;23.05;9.18;;;;;;;;;;8400491;28;20043;-78
2022/01/05 18:01:39;;;;;;;29.20;9.68;;;;;;;;;;8410237;28;20036;-76
2022/01/05 18:05:42;;;;;;;43.45;14.52;;;;;;;;;;8428785;28;20086;-77
2022/01/05 18:09:47;;;;;;;90.22;27.30;;;;;;;;;;8411828;28;20044;-78
2022/01/05 18:13:52;;;;;;;68.18;20.02;;;;;;;;;;8398109;28;20056;-79
2022/01/05 18:17:56;;;;;;;48.60;17.20;;;;;;;;;;8397182;28;20050;-77
2022/01/05 18:22:00;;;;;;;36.83;13.07;;;;;;;;;;8397139;28;20102;-78
2022/01/05 18:26:04;;;;;;;28.70;10.30;;;;;;;;;;8398986;28;20044;-79
2022/01/05 18:30:10;;;;;;;15.18;6.45;;;;;;;;;;8405667;28;20430;-78
2022/01/05 18:34:15;;;;;;;37.78;15.68;;;;;;;;;;8395802;28;20036;-79
2022/01/05 18:38:24;;;;;;;22.58;10.18;;;;;;;;;;8394667;28;20068;-80
2022/01/05 18:42:40;;;;;;;16.45;7.90;;;;;;;;;;8419207;28;20039;-78
2022/01/05 18:47:20;;;;;;;15.45;6.13;;;;;;;;;;8427690;28;20097;-78
2022/01/05 18:51:45;;;;;;;10.70;5.65;;;;;;;;;;8429795;28;20040;-77
2022/01/05 18:56:08;;;;;;;20.40;8.02;;;;;;;;;;8429366;28;20082;-77
2022/01/05 19:00:20;;;;;;;16.45;6.45;;;;;;;;;;8429722;28;20067;-77
2022/01/05 19:04:35;;;;;;;18.23;7.13;;;;;;;;;;8429792;28;20136;-77
2022/01/05 19:08:44;;;;;;;13.13;5.18;;;;;;;;;;8428782;28;20048;-77
2022/01/05 19:13:14;;;;;;;20.27;7.53;;;;;;;;;;8429391;28;20063;-77
2022/01/05 19:17:34;;;;;;;10.50;5.97;;;;;;;;;;8428822;28;20512;-77
2022/01/05 19:22:17;;;;;;;14.82;7.85;;;;;;;;;;8428975;28;20068;-78
2022/01/05 19:26:31;;;;;;;17.77;8.95;;;;;;;;;;8429157;28;20479;-77
2022/01/05 19:30:40;;;;;;;14.20;7.40;;;;;;;;;;8429358;28;20044;-78
2022/01/05 19:34:47;;;;;;;17.08;7.70;;;;;;;;;;8429189;28;20527;-78
2022/01/05 19:39:11;;;;;;;21.90;9.35;;;;;;;;;;8429341;28;20048;-77
2022/01/05 19:43:34;;;;;;;17.90;8.30;;;;;;;;;;8428859;28;20044;-77
2022/01/05 19:47:51;;;;;;;22.52;7.70;;;;;;;;;;8429114;28;20083;-78
2022/01/05 19:52:18;;;;;;;16.45;7.80;;;;;;;;;;8428945;28;20040;-79
2022/01/05 19:56:49;;;;;;;25.33;11.33;;;;;;;;;;8428400;28;20542;-77
2022/01/05 20:01:27;;;;;;;24.45;8.63;;;;;;;;;;8427933;28;20044;-78
2022/01/05 20:11:05;;;;;;;29.77;11.57;;;;;;;;;;8397891;28;20411;-77
2022/01/05 20:15:52;;;;;;;32.08;11.07;;;;;;;;;;8401149;28;20098;-77
2022/01/05 20:25:05;;;;;;;21.10;7.97;;;;;;;;;;8433799;28;20052;-77
2022/01/05 20:29:25;;;;;;;36.67;12.32;;;;;;;;;;8434511;28;20047;-78
2022/01/05 20:33:52;;;;;;;34.25;10.32;;;;;;;;;;8434137;28;20044;-78
2022/01/05 20:38:17;;;;;;;38.13;16.48;;;;;;;;;;8433921;28;20048;-78
2022/01/05 20:42:56;;;;;;;22.60;7.72;;;;;;;;;;8433136;28;20130;-78
2022/01/05 20:47:40;;;;;;;21.48;6.70;;;;;;;;;;8428740;28;20040;-77
2022/01/05 20:52:14;;;;;;;19.30;7.20;;;;;;;;;;8402625;28;20135;-78
2022/01/05 20:56:52;;;;;;;16.73;5.50;;;;;;;;;;8396923;28;20097;-77
2022/01/05 21:01:11;;;;;;;11.73;5.13;;;;;;;;;;8407825;28;20048;-76
2022/01/05 21:05:41;;;;;;;14.30;5.53;;;;;;;;;;8399480;28;20048;-78
2022/01/05 21:10:12;;;;;;;20.15;6.78;;;;;;;;;;8396667;28;20041;-78
2022/01/05 21:19:45;;;;;;;12.13;5.72;;;;;;;;;;8425308;28;20104;-77
2022/01/05 21:28:59;;;;;;;24.85;10.27;;;;;;;;;;8432413;28;20050;-76
2022/01/05 21:33:08;;;;;;;24.80;9.63;;;;;;;;;;8416708;28;20040;-78
2022/01/05 21:37:12;;;;;;;35.30;12.38;;;;;;;;;;8405881;28;20131;-78
2022/01/05 21:41:16;;;;;;;22.25;8.73;;;;;;;;;;8424216;28;20064;-78
2022/01/05 21:45:21;;;;;;;32.35;11.45;;;;;;;;;;8446392;28;20040;-79
2022/01/05 21:49:25;;;;;;;27.50;8.70;;;;;;;;;;8453968;28;20059;-79
2022/01/05 21:53:29;;;;;;;21.85;10.57;;;;;;;;;;8465492;28;20056;-77
2022/01/05 21:57:33;;;;;;;23.60;9.43;;;;;;;;;;8465379;28;20044;-77
2022/01/05 22:01:42;;;;;;;18.27;8.02;;;;;;;;;;8437403;28;20483;-77
2022/01/05 22:06:03;;;;;;;18.75;6.88;;;;;;;;;;8439061;28;20054;-77
2022/01/05 22:10:09;;;;;;;16.33;6.57;;;;;;;;;;8447048;28;20043;-78
2022/01/05 22:14:17;;;;;;;23.00;10.20;;;;;;;;;;8437584;28;20040;-77
2022/01/05 22:18:31;;;;;;;19.13;8.43;;;;;;;;;;8428909;28;20138;-78
2022/01/05 22:22:36;;;;;;;17.95;7.65;;;;;;;;;;8440690;28;20066;-77
2022/01/05 22:26:41;;;;;;;16.67;8.02;;;;;;;;;;8427596;28;20055;-78
2022/01/05 22:30:45;;;;;;;14.20;7.65;;;;;;;;;;8429916;28;20048;-78
2022/01/05 22:34:50;;;;;;;15.25;7.25;;;;;;;;;;8430361;28;20457;-77
2022/01/05 22:38:54;;;;;;;18.05;7.30;;;;;;;;;;8430509;28;20056;-76
2022/01/05 22:42:57;;;;;;;23.58;10.32;;;;;;;;;;8430517;28;20066;-78
2022/01/05 22:47:00;;;;;;;18.35;7.90;;;;;;;;;;8430853;28;20050;-78
2022/01/05 22:51:05;;;;;;;17.63;7.88;;;;;;;;;;8430440;28;20122;-77
2022/01/05 22:55:13;;;;;;;18.25;6.68;;;;;;;;;;8430231;28;20102;-78
2022/01/05 22:59:16;;;;;;;23.60;9.25;;;;;;;;;;8430634;28;20044;-77
2022/01/05 23:03:19;;;;;;;16.20;7.53;;;;;;;;;;8430465;28;20484;-77
2022/01/05 23:07:24;;;;;;;17.63;7.30;;;;;;;;;;8430213;28;20044;-78
2022/01/05 23:11:30;;;;;;;12.35;6.00;;;;;;;;;;8430340;28;20093;-78
2022/01/05 23:15:34;;;;;;;20.88;9.30;;;;;;;;;;8429943;28;20499;-77
2022/01/05 23:19:37;;;;;;;15.68;6.55;;;;;;;;;;8429831;28;20094;-77
2022/01/05 23:23:41;;;;;;;17.08;7.47;;;;;;;;;;8429737;28;20052;-77
2022/01/05 23:27:45;;;;;;;45.97;14.27;;;;;;;;;;8430291;28;20410;-77
2022/01/05 23:31:48;;;;;;;13.82;6.72;;;;;;;;;;8429805;28;20097;-78
2022/01/05 23:35:53;;;;;;;39.50;13.40;;;;;;;;;;8430482;28;20044;-77
2022/01/05 23:39:58;;;;;;;15.23;5.72;;;;;;;;;;8436648;28;20056;-77
2022/01/05 23:44:01;;;;;;;19.67;7.13;;;;;;;;;;8436047;28;20058;-77
2022/01/05 23:48:06;;;;;;;20.52;9.20;;;;;;;;;;8435969;28;20079;-78
2022/01/05 23:52:09;;;;;;;13.65;5.50;;;;;;;;;;8435882;28;20040;-77
2022/01/05 23:56:13;;;;;;;15.27;6.82;;;;;;;;;;8435584;28;20051;-77
